createdAt,value
2019-04-25T00:00:08.166Z,10.00
2019-04-25T00:02:39.388Z,10.10
2019-04-25T00:05:12.229Z,10.00
2019-04-25T00:07:43.032Z,10.00
2019-04-25T00:10:15.712Z,10.10
2019-04-25T00:12:46.014Z,10.10
2019-04-25T00:15:15.505Z,10.10
2019-04-25T00:17:44.560Z,10.00
2019-04-25T00:20:13.721Z,10.00
2019-04-25T00:22:49.263Z,10.00
2019-04-25T00:25:31.329Z,10.00
2019-04-25T00:28:01.821Z,9.90
2019-04-25T00:30:32.787Z,9.90
2019-04-25T00:33:02.093Z,9.80
2019-04-25T00:35:32.256Z,9.70
2019-04-25T00:38:02.394Z,9.90
2019-04-25T00:40:31.891Z,9.90
2019-04-25T00:43:02.105Z,9.90
2019-04-25T00:45:31.707Z,9.80
2019-04-25T00:48:04.163Z,9.90
2019-04-25T00:50:32.297Z,9.80
2019-04-25T00:53:01.431Z,9.80
2019-04-25T00:55:31.435Z,9.90
2019-04-25T00:58:07.420Z,9.90
2019-04-25T01:00:54.506Z,9.90
2019-04-25T01:03:26.840Z,9.90
2019-04-25T01:05:55.916Z,9.90
2019-04-25T01:08:25.175Z,9.80
2019-04-25T01:10:54.277Z,9.70
2019-04-25T01:13:23.431Z,9.70
2019-04-25T01:15:52.911Z,9.60
2019-04-25T01:18:23.203Z,9.50
2019-04-25T01:20:54.441Z,9.50
2019-04-25T01:23:23.793Z,9.50
2019-04-25T01:25:53.733Z,9.40
2019-04-25T01:28:24.361Z,9.40
2019-04-25T01:30:55.134Z,9.30
2019-04-25T01:33:24.293Z,9.30
2019-04-25T01:35:59.158Z,9.30
2019-04-25T01:38:35.151Z,9.30
2019-04-25T01:41:14.462Z,9.20
2019-04-25T01:44:05.514Z,9.20
2019-04-25T01:46:36.176Z,9.10
2019-04-25T01:49:05.302Z,9.20
2019-04-25T01:51:36.472Z,9.10
2019-04-25T01:54:05.690Z,9.10
2019-04-25T01:56:34.925Z,9.20
2019-04-25T01:59:04.413Z,9.30
2019-04-25T02:01:35.382Z,9.10
2019-04-25T02:04:04.709Z,9.10
2019-04-25T02:06:35.448Z,9.10
2019-04-25T02:09:08.966Z,9.10
2019-04-25T02:11:52.446Z,9.20
2019-04-25T02:14:23.714Z,9.10
2019-04-25T02:16:55.834Z,9.10
2019-04-25T02:19:24.270Z,9.00
2019-04-25T02:21:54.547Z,8.90
2019-04-25T02:24:24.419Z,8.80
2019-04-25T02:26:55.241Z,8.80
2019-04-25T02:29:26.605Z,8.90
2019-04-25T02:32:00.190Z,8.90
2019-04-25T02:34:29.149Z,8.80
2019-04-25T02:37:01.524Z,8.90
2019-04-25T02:39:29.616Z,8.80
2019-04-25T02:42:00.606Z,8.70
2019-04-25T02:44:31.334Z,8.70
2019-04-25T02:47:24.739Z,8.70
2019-04-25T02:50:10.688Z,8.80
2019-04-25T02:52:50.295Z,8.70
2019-04-25T02:55:31.174Z,8.70
2019-04-25T02:57:51.642Z,8.70
2019-04-25T03:00:27.455Z,8.70
2019-04-25T03:02:57.910Z,8.90
2019-04-25T03:05:27.758Z,8.80
2019-04-25T03:07:58.025Z,8.80
2019-04-25T03:10:27.793Z,8.80
2019-04-25T03:12:58.515Z,8.80
2019-04-25T03:15:27.829Z,8.90
2019-04-25T03:18:02.308Z,8.90
2019-04-25T03:20:39.746Z,9.00
2019-04-25T03:23:16.424Z,9.00
2019-04-25T03:25:46.609Z,9.10
2019-04-25T03:28:15.721Z,8.90
2019-04-25T03:30:45.082Z,8.90
2019-04-25T03:33:19.291Z,9.00
2019-04-25T03:35:44.745Z,9.00
2019-04-25T03:38:14.507Z,9.10
2019-04-25T03:40:43.982Z,9.10
2019-04-25T03:43:14.915Z,8.90
2019-04-25T03:45:45.329Z,8.90
2019-04-25T03:48:14.560Z,8.80
2019-04-25T03:50:44.173Z,9.00
2019-04-25T03:53:13.939Z,8.90
2019-04-25T03:55:44.337Z,8.90
2019-04-25T03:58:14.599Z,8.70
2019-04-25T04:00:44.723Z,8.90
2019-04-25T04:03:15.131Z,8.80
2019-04-25T04:05:44.409Z,8.70
2019-04-25T04:08:15.704Z,8.30
2019-04-25T04:10:44.100Z,8.00
2019-04-25T04:13:14.596Z,8.10
2019-04-25T04:15:44.073Z,8.10
2019-04-25T04:18:18.549Z,8.00
2019-04-25T04:21:09.710Z,8.00
2019-04-25T04:23:43.585Z,8.20
2019-04-25T04:26:13.650Z,8.20
2019-04-25T04:28:43.597Z,8.30
2019-04-25T04:31:14.353Z,8.20
2019-04-25T04:33:43.543Z,8.30
2019-04-25T04:36:14.821Z,8.40
2019-04-25T04:38:45.446Z,8.50
2019-04-25T04:41:15.459Z,8.50
2019-04-25T04:43:47.368Z,8.50
2019-04-25T04:46:18.236Z,8.60
2019-04-25T04:48:47.269Z,8.80
2019-04-25T04:51:16.959Z,9.30
2019-04-25T04:53:45.998Z,9.60
2019-04-25T04:56:16.560Z,10.10
2019-04-25T04:58:46.453Z,10.40
2019-04-25T05:01:17.155Z,10.60
2019-04-25T05:03:53.923Z,11.40
2019-04-25T05:06:53.611Z,12.40
2019-04-25T05:09:26.684Z,12.90
2019-04-25T05:11:55.809Z,13.10
2019-04-25T05:14:26.591Z,13.50
2019-04-25T05:16:55.842Z,13.60
2019-04-25T05:19:25.064Z,13.70
2019-04-25T05:21:54.146Z,13.70
2019-04-25T05:24:26.384Z,13.40
2019-04-25T05:26:56.951Z,13.60
2019-04-25T05:29:26.680Z,13.80
2019-04-25T05:31:55.867Z,14.10
2019-04-25T05:34:25.932Z,14.10
2019-04-25T05:36:55.306Z,14.00
2019-04-25T05:39:25.159Z,14.10
2019-04-25T05:42:17.182Z,14.10
2019-04-25T05:44:48.458Z,14.00
2019-04-25T05:47:26.029Z,14.00
2019-04-25T05:49:54.405Z,14.10
2019-04-25T05:52:24.299Z,14.10
2019-04-25T05:54:54.269Z,14.50
2019-04-25T05:57:23.901Z,14.80
2019-04-25T05:59:53.985Z,14.80
2019-04-25T06:02:25.165Z,14.80
2019-04-25T06:04:54.020Z,14.50
2019-04-25T06:07:25.467Z,14.70
2019-04-25T06:10:14.272Z,14.90
2019-04-25T06:12:55.374Z,14.90
2019-04-25T06:15:28.239Z,14.80
2019-04-25T06:18:28.728Z,14.40
2019-04-25T06:20:58.088Z,14.20
2019-04-25T06:23:46.238Z,14.40
2019-04-25T06:26:24.827Z,14.20
2019-04-25T06:28:57.715Z,13.80
2019-04-25T06:31:29.242Z,13.50
2019-04-25T06:34:00.520Z,13.50
2019-04-25T06:36:29.733Z,13.50
2019-04-25T06:38:58.838Z,13.50
2019-04-25T06:41:32.186Z,13.60
2019-04-25T06:44:04.054Z,13.50
2019-04-25T06:46:48.907Z,12.90
2019-04-25T06:49:26.447Z,13.00
2019-04-25T06:51:55.388Z,12.90
2019-04-25T06:54:25.739Z,12.80
2019-04-25T06:56:57.461Z,12.90
2019-04-25T06:59:27.587Z,12.70
2019-04-25T07:01:57.315Z,12.70
2019-04-25T07:04:27.091Z,12.90
2019-04-25T07:07:09.395Z,13.10
2019-04-25T07:09:29.532Z,13.20
2019-04-25T07:11:58.772Z,13.20
2019-04-25T07:14:29.861Z,13.30
2019-04-25T07:16:58.879Z,13.30
2019-04-25T07:19:35.497Z,13.40
2019-04-25T07:22:04.858Z,13.50
2019-04-25T07:24:35.294Z,13.60
2019-04-25T07:27:34.349Z,13.50
2019-04-25T07:30:31.898Z,13.60
2019-04-25T07:32:58.998Z,13.70
2019-04-25T07:35:27.960Z,13.40
2019-04-25T07:37:57.485Z,13.50
2019-04-25T07:40:27.411Z,13.70
2019-04-25T07:42:56.506Z,13.90
2019-04-25T07:45:27.014Z,13.90
2019-04-25T07:47:56.252Z,13.80
2019-04-25T07:50:26.859Z,14.00
2019-04-25T07:52:56.071Z,14.10
2019-04-25T07:55:25.170Z,14.20
2019-04-25T07:57:54.269Z,14.30
2019-04-25T08:00:24.122Z,14.50
2019-04-25T08:02:54.300Z,14.60
2019-04-25T08:05:24.621Z,14.70
2019-04-25T08:07:53.698Z,14.90
2019-04-25T08:10:23.969Z,15.00
2019-04-25T08:12:53.623Z,15.10
2019-04-25T08:15:33.871Z,15.20
2019-04-25T08:18:05.894Z,15.20
2019-04-25T08:20:35.922Z,15.30
2019-04-25T08:23:06.080Z,15.30
2019-04-25T08:25:38.901Z,15.50
2019-04-25T08:28:06.010Z,15.70
2019-04-25T08:30:35.660Z,15.70
2019-04-25T08:33:06.179Z,15.80
2019-04-25T08:35:36.422Z,15.90
2019-04-25T08:38:05.773Z,16.10
2019-04-25T08:40:37.340Z,16.10
2019-04-25T08:43:05.993Z,16.20
2019-04-25T08:45:35.795Z,16.40
2019-04-25T08:48:06.048Z,16.50
2019-04-25T08:51:03.548Z,16.70
2019-04-25T08:53:39.692Z,16.90
2019-04-25T08:56:15.016Z,17.00
2019-04-25T08:59:18.251Z,17.00
2019-04-25T09:02:15.280Z,17.10
2019-04-25T09:05:01.901Z,17.20
2019-04-25T09:07:30.892Z,17.40
2019-04-25T09:09:59.787Z,17.30
2019-04-25T09:12:28.765Z,17.50
2019-04-25T09:14:57.651Z,17.50
2019-04-25T09:17:26.569Z,17.60
2019-04-25T09:19:55.474Z,17.80
2019-04-25T09:22:24.401Z,17.80
2019-04-25T09:24:53.979Z,17.90
2019-04-25T09:27:23.584Z,18.00
2019-04-25T09:29:54.132Z,18.10
2019-04-25T09:32:23.824Z,18.20
2019-04-25T09:34:54.407Z,18.30
2019-04-25T09:37:24.622Z,18.30
2019-04-25T09:40:02.002Z,18.20
2019-04-25T09:42:31.382Z,18.20
2019-04-25T09:45:26.451Z,18.30
2019-04-25T09:47:56.713Z,18.50
2019-04-25T09:50:39.571Z,18.70
2019-04-25T09:53:15.486Z,18.90
2019-04-25T09:55:55.221Z,18.90
2019-04-25T09:58:33.876Z,19.10
2019-04-25T10:01:08.580Z,19.20
2019-04-25T10:03:38.594Z,19.20
2019-04-25T10:06:07.878Z,19.20
2019-04-25T10:08:37.011Z,19.20
2019-04-25T10:11:06.124Z,19.40
2019-04-25T10:13:35.060Z,19.40
2019-04-25T10:16:12.288Z,19.40
2019-04-25T10:18:41.431Z,19.60
2019-04-25T10:21:11.830Z,19.70
2019-04-25T10:23:43.379Z,19.70
2019-04-25T10:26:13.052Z,19.70
2019-04-25T10:28:44.082Z,19.70
2019-04-25T10:31:13.718Z,19.80
2019-04-25T10:33:45.305Z,19.90
2019-04-25T10:36:14.489Z,20.00
2019-04-25T10:38:46.993Z,20.00
2019-04-25T10:41:15.083Z,20.20
2019-04-25T10:43:44.104Z,20.20
2019-04-25T10:46:14.217Z,20.30
2019-04-25T10:48:44.049Z,20.50
2019-04-25T10:51:13.902Z,20.60
2019-04-25T10:53:45.130Z,20.60
2019-04-25T10:56:14.149Z,20.70
2019-04-25T10:58:44.481Z,20.80
2019-04-25T11:01:15.345Z,20.90
2019-04-25T11:03:51.698Z,20.90
2019-04-25T11:06:23.985Z,21.00
2019-04-25T11:08:55.428Z,20.80
2019-04-25T11:11:24.181Z,21.00
2019-04-25T11:13:56.423Z,21.00
2019-04-25T11:16:25.420Z,21.10
2019-04-25T11:18:54.900Z,21.20
2019-04-25T11:21:28.821Z,21.30
2019-04-25T11:23:57.683Z,21.40
2019-04-25T11:26:27.061Z,21.50
2019-04-25T11:28:56.488Z,21.50
2019-04-25T11:31:33.740Z,21.30
2019-04-25T11:34:03.576Z,21.40
2019-04-25T11:36:34.044Z,21.60
2019-04-25T11:39:23.924Z,21.60
2019-04-25T11:41:59.445Z,21.60
2019-04-25T11:44:28.426Z,21.70
2019-04-25T11:47:00.673Z,21.70
2019-04-25T11:49:29.650Z,21.90
2019-04-25T11:51:58.745Z,22.00
2019-04-25T11:54:27.624Z,22.00
2019-04-25T11:56:58.565Z,22.20
2019-04-25T11:59:29.513Z,22.60
2019-04-25T12:01:59.860Z,22.80
2019-04-25T12:04:28.904Z,22.70
2019-04-25T12:06:57.905Z,22.70
2019-04-25T12:09:27.278Z,22.60
2019-04-25T12:11:56.472Z,22.70
2019-04-25T12:14:27.490Z,22.50
2019-04-25T12:16:56.564Z,22.60
2019-04-25T12:19:34.580Z,22.60
2019-04-25T12:21:58.174Z,22.70
2019-04-25T12:24:27.470Z,22.70
2019-04-25T12:26:56.387Z,23.00
2019-04-25T12:29:25.507Z,23.00
2019-04-25T12:31:54.951Z,23.20
2019-04-25T12:34:24.337Z,23.20
2019-04-25T12:36:54.493Z,23.00
2019-04-25T12:39:24.289Z,23.10
2019-04-25T12:41:56.058Z,23.10
2019-04-25T12:44:45.070Z,23.10
2019-04-25T12:47:20.819Z,23.10
2019-04-25T12:49:50.630Z,23.30
2019-04-25T12:52:19.758Z,23.30
2019-04-25T12:54:49.148Z,23.20
2019-04-25T12:57:18.857Z,23.20
2019-04-25T12:59:51.272Z,22.90
2019-04-25T13:02:23.555Z,22.80
2019-04-25T13:04:54.495Z,23.00
2019-04-25T13:07:23.623Z,23.10
2019-04-25T13:09:53.731Z,23.30
2019-04-25T13:12:23.814Z,23.30
2019-04-25T13:14:52.897Z,23.50
2019-04-25T13:17:23.955Z,23.50
2019-04-25T13:19:54.304Z,23.50
2019-04-25T13:22:23.759Z,23.50
2019-04-25T13:24:52.744Z,23.50
2019-04-25T13:27:36.396Z,23.60
2019-04-25T13:30:25.386Z,23.60
2019-04-25T13:33:13.305Z,23.60
2019-04-25T13:35:49.820Z,23.70
2019-04-25T13:38:18.728Z,23.90
2019-04-25T13:40:47.961Z,23.70
2019-04-25T13:43:16.866Z,23.80
2019-04-25T13:45:45.861Z,23.90
2019-04-25T13:48:14.843Z,24.00
2019-04-25T13:50:44.368Z,24.00
2019-04-25T13:53:13.398Z,24.10
2019-04-25T13:55:42.298Z,24.20
2019-04-25T13:58:11.785Z,24.30
2019-04-25T14:00:40.767Z,24.60
2019-04-25T14:03:09.904Z,24.40
2019-04-25T14:05:39.004Z,24.30
2019-04-25T14:08:07.949Z,24.40
2019-04-25T14:10:37.038Z,24.40
2019-04-25T14:13:06.200Z,24.30
2019-04-25T14:15:37.266Z,24.20
2019-04-25T14:18:43.507Z,24.30
2019-04-25T14:21:15.751Z,24.20
2019-04-25T14:23:44.652Z,24.10
2019-04-25T14:26:13.691Z,24.30
2019-04-25T14:28:44.161Z,24.30
2019-04-25T14:31:30.429Z,24.10
2019-04-25T14:33:46.902Z,23.90
2019-04-25T14:36:16.197Z,23.90
2019-04-25T14:38:45.301Z,23.70
2019-04-25T14:41:14.375Z,23.50
2019-04-25T14:43:43.296Z,23.50
2019-04-25T14:46:12.386Z,23.40
2019-04-25T14:48:41.530Z,23.30
2019-04-25T14:51:10.888Z,23.30
2019-04-25T14:53:40.038Z,23.10
2019-04-25T14:56:19.998Z,23.20
2019-04-25T14:58:54.765Z,23.30
2019-04-25T15:01:24.402Z,23.20
2019-04-25T15:03:53.372Z,23.20
2019-04-25T15:06:23.376Z,23.20
2019-04-25T15:08:53.393Z,23.20
2019-04-25T15:11:23.237Z,23.20
2019-04-25T15:13:52.335Z,23.30
2019-04-25T15:16:21.309Z,23.50
2019-04-25T15:18:51.463Z,23.50
2019-04-25T15:21:20.370Z,23.50
2019-04-25T15:23:59.554Z,23.40
2019-04-25T15:26:19.940Z,23.30
2019-04-25T15:28:48.765Z,23.20
2019-04-25T15:31:17.824Z,23.20
2019-04-25T15:33:46.946Z,23.10
2019-04-25T15:36:21.322Z,23.10
2019-04-25T15:39:00.670Z,23.20
2019-04-25T15:41:41.779Z,23.20
2019-04-25T15:44:29.165Z,23.10
2019-04-25T15:46:58.972Z,23.00
2019-04-25T15:49:28.746Z,22.90
2019-04-25T15:51:58.001Z,22.80
2019-04-25T15:54:27.613Z,22.80
2019-04-25T15:56:56.698Z,22.70
2019-04-25T15:59:26.356Z,22.50
2019-04-25T16:02:07.473Z,22.40
2019-04-25T16:04:26.717Z,22.50
2019-04-25T16:06:55.861Z,22.50
2019-04-25T16:09:25.454Z,22.50
2019-04-25T16:11:54.442Z,22.50
2019-04-25T16:14:23.422Z,22.50
2019-04-25T16:16:52.319Z,22.60
2019-04-25T16:19:21.316Z,22.70
2019-04-25T16:21:50.166Z,22.70
2019-04-25T16:24:19.101Z,22.70
2019-04-25T16:26:48.121Z,22.70
2019-04-25T16:29:17.632Z,22.70
2019-04-25T16:31:46.582Z,22.80
2019-04-25T16:34:15.464Z,22.70
2019-04-25T16:36:44.384Z,22.70
2019-04-25T16:39:18.583Z,22.80
2019-04-25T16:41:47.628Z,22.80
2019-04-25T16:44:19.317Z,22.70
2019-04-25T16:46:48.397Z,22.60
2019-04-25T16:49:17.380Z,22.60
2019-04-25T16:51:46.390Z,22.40
2019-04-25T16:54:15.469Z,22.30
2019-04-25T16:56:44.491Z,22.10
2019-04-25T16:59:13.476Z,21.90
2019-04-25T17:01:42.777Z,21.70
2019-04-25T17:04:11.962Z,21.60
2019-04-25T17:06:41.067Z,21.50
2019-04-25T17:09:10.170Z,21.40
2019-04-25T17:11:40.050Z,21.30
2019-04-25T17:14:17.347Z,21.20
2019-04-25T17:16:55.121Z,21.10
2019-04-25T17:19:32.769Z,21.00
2019-04-25T17:22:01.805Z,20.90
2019-04-25T17:24:31.106Z,20.80
2019-04-25T17:27:00.260Z,20.70
2019-04-25T17:29:29.222Z,20.80
2019-04-25T17:32:13.006Z,20.80
2019-04-25T17:34:55.454Z,20.80
2019-04-25T17:37:28.113Z,20.70
2019-04-25T17:40:10.625Z,20.70
2019-04-25T17:42:39.562Z,20.50
2019-04-25T17:45:10.409Z,20.40
2019-04-25T17:47:39.353Z,20.30
2019-04-25T17:50:08.317Z,20.20
2019-04-25T17:52:38.230Z,20.20
2019-04-25T17:55:07.506Z,20.10
2019-04-25T17:57:36.527Z,20.00
2019-04-25T18:00:11.218Z,19.90
2019-04-25T18:02:40.198Z,19.80
2019-04-25T18:05:09.206Z,19.70
2019-04-25T18:07:39.039Z,19.60
2019-04-25T18:10:10.483Z,19.50
2019-04-25T18:12:40.085Z,19.30
2019-04-25T18:15:10.953Z,19.10
2019-04-25T18:17:40.283Z,18.80
2019-04-25T18:20:15.901Z,18.60
2019-04-25T18:23:03.901Z,18.40
2019-04-25T18:25:50.910Z,18.30
2019-04-25T18:28:48.091Z,18.10
2019-04-25T18:31:17.170Z,17.80
2019-04-25T18:33:46.748Z,17.50
2019-04-25T18:36:43.941Z,17.30
2019-04-25T18:39:32.385Z,17.00
2019-04-25T18:42:32.829Z,16.70
2019-04-25T18:45:02.119Z,16.30
2019-04-25T18:47:31.029Z,16.10
2019-04-25T18:50:00.018Z,16.00
2019-04-25T18:52:49.046Z,15.80
2019-04-25T18:55:30.745Z,15.70
2019-04-25T18:58:11.029Z,15.60
2019-04-25T19:00:51.061Z,15.50
2019-04-25T19:03:33.479Z,15.30
2019-04-25T19:06:08.033Z,15.00
2019-04-25T19:08:36.994Z,14.80
2019-04-25T19:11:10.736Z,14.70
2019-04-25T19:13:39.752Z,14.50
2019-04-25T19:16:08.719Z,14.30
2019-04-25T19:18:37.557Z,14.00
2019-04-25T19:21:06.663Z,13.80
2019-04-25T19:23:35.656Z,13.60
2019-04-25T19:26:04.720Z,13.60
2019-04-25T19:28:33.631Z,13.40
2019-04-25T19:31:02.614Z,13.30
2019-04-25T19:33:36.030Z,13.20
2019-04-25T19:36:02.237Z,12.90
2019-04-25T19:38:32.229Z,12.80
2019-04-25T19:41:18.292Z,12.80
2019-04-25T19:44:06.345Z,12.60
2019-04-25T19:47:00.671Z,12.50
2019-04-25T19:49:29.657Z,12.40
2019-04-25T19:51:58.611Z,12.30
2019-04-25T19:54:27.602Z,12.10
2019-04-25T19:56:56.575Z,12.00
2019-04-25T19:59:25.657Z,11.90
2019-04-25T20:01:56.360Z,11.80
2019-04-25T20:04:43.085Z,11.70
2019-04-25T20:07:18.654Z,11.70
2019-04-25T20:10:05.796Z,11.60
2019-04-25T20:12:38.289Z,11.60
2019-04-25T20:15:07.705Z,11.50
2019-04-25T20:17:36.636Z,11.30
2019-04-25T20:20:05.701Z,11.30
2019-04-25T20:22:35.517Z,11.30
2019-04-25T20:25:05.359Z,11.20
2019-04-25T20:27:34.425Z,11.10
2019-04-25T20:30:04.257Z,11.00
2019-04-25T20:32:33.298Z,10.90
2019-04-25T20:35:02.344Z,10.90
2019-04-25T20:37:31.546Z,10.80
2019-04-25T20:40:01.869Z,10.90
2019-04-25T20:42:31.724Z,10.90
2019-04-25T20:45:01.809Z,10.80
2019-04-25T20:47:30.848Z,10.80
2019-04-25T20:49:59.729Z,10.80
2019-04-25T20:52:29.963Z,10.60
2019-04-25T20:54:58.934Z,10.60
2019-04-25T20:57:27.839Z,10.60
2019-04-25T20:59:56.788Z,10.40
2019-04-25T21:02:25.797Z,10.50
2019-04-25T21:04:54.698Z,10.50
2019-04-25T21:07:23.656Z,10.40
2019-04-25T21:09:53.243Z,10.40
2019-04-25T21:12:22.260Z,10.50
2019-04-25T21:15:16.734Z,10.50
2019-04-25T21:18:02.086Z,10.50
2019-04-25T21:20:30.973Z,10.50
2019-04-25T21:22:59.946Z,10.40
2019-04-25T21:25:28.862Z,10.30
2019-04-25T21:27:58.632Z,10.20
2019-04-25T21:30:27.618Z,10.00
2019-04-25T21:32:57.265Z,10.00
2019-04-25T21:35:26.582Z,10.10
2019-04-25T21:37:55.563Z,10.10
2019-04-25T21:40:43.572Z,10.10
2019-04-25T21:43:16.562Z,10.20
2019-04-25T21:45:45.962Z,10.40
2019-04-25T21:48:15.329Z,10.50
2019-04-25T21:50:44.541Z,10.50
2019-04-25T21:53:13.484Z,10.50
2019-04-25T21:55:42.627Z,10.20
2019-04-25T21:58:11.805Z,10.20
2019-04-25T22:01:18.733Z,10.10
2019-04-25T22:03:47.773Z,10.20
2019-04-25T22:06:17.965Z,10.30
2019-04-25T22:08:47.076Z,10.40
2019-04-25T22:11:16.127Z,10.30
2019-04-25T22:13:45.608Z,10.10
2019-04-25T22:16:14.826Z,10.10
2019-04-25T22:18:44.175Z,10.20
2019-04-25T22:21:13.312Z,10.30
2019-04-25T22:23:42.698Z,10.30
2019-04-25T22:26:11.617Z,10.30
2019-04-25T22:28:41.076Z,10.20
2019-04-25T22:31:16.134Z,10.10
2019-04-25T22:34:01.670Z,10.00
2019-04-25T22:36:30.923Z,10.10
2019-04-25T22:39:11.177Z,10.00
2019-04-25T22:41:46.650Z,10.00
2019-04-25T22:44:15.546Z,10.10
2019-04-25T22:46:46.861Z,10.00
2019-04-25T22:49:15.909Z,9.90
2019-04-25T22:51:44.819Z,9.80
2019-04-25T22:54:14.977Z,9.80
2019-04-25T22:56:52.258Z,10.00
2019-04-25T22:59:21.442Z,9.80
2019-04-25T23:02:03.528Z,9.70
2019-04-25T23:05:04.717Z,9.70
2019-04-25T23:07:25.654Z,9.80
2019-04-25T23:10:01.943Z,9.90
2019-04-25T23:12:32.221Z,9.80
2019-04-25T23:15:01.176Z,9.80
2019-04-25T23:17:30.169Z,9.80
2019-04-25T23:19:59.371Z,9.80
2019-04-25T23:22:28.296Z,9.80
2019-04-25T23:25:06.060Z,9.80
2019-04-25T23:28:00.191Z,9.80
2019-04-25T23:30:36.030Z,9.60
2019-04-25T23:33:05.655Z,9.50
2019-04-25T23:35:37.265Z,9.50
2019-04-25T23:38:07.126Z,9.60
2019-04-25T23:40:36.257Z,9.50
2019-04-25T23:43:06.228Z,9.50
2019-04-25T23:45:36.228Z,9.60
2019-04-25T23:48:06.057Z,9.70
2019-04-25T23:50:36.033Z,9.60
2019-04-25T23:53:06.512Z,9.60
2019-04-25T23:55:36.764Z,9.60
2019-04-25T23:58:05.748Z,9.60
